Ecclesfield, United Kingdom
Current Conditions -  °F | °C
As of 10:50 PM on Wednesday 26 Nov 2014 (Local Time) from EGCN Reporting Station
Moderate Fog Moderate Fog  
Wind Chill: 46°   Ceiling: 100
Heat Index: 46°   Visibility: 0.56mi
Dew Point: 45°   Wind: 3mph
Humidity: 93%   Direction: 330°NNW
Pressure: 29.8"   Gusts: NA
Location:  53.45°N, 1.47°W
Report Text: EGCN 262250Z 33003KT 0900 R20/0900 FG OVC001 08/07 Q1009
Loading
Personal Weather Stations






























Interactive Weather Map New forecast layout! Learn more

10-Day Weather Forecast

Advertisements
Track Severe Weather on mobile